sensor_id;sensor_type;location;lat;lon;timestamp;P1;durP1;ratioP1;P2;durP2;ratioP2
2029;SDS011;1020;48.854;8.830;2023-05-03T00:00:57;7.17;;;6.50;;
2029;SDS011;1020;48.854;8.830;2023-05-03T00:03:25;7.07;;;6.37;;
2029;SDS011;1020;48.854;8.830;2023-05-03T00:05:53;6.57;;;5.90;;
2029;SDS011;1020;48.854;8.830;2023-05-03T00:08:20;6.77;;;6.07;;
2029;SDS011;1020;48.854;8.830;2023-05-03T00:10:47;7.87;;;7.17;;
2029;SDS011;1020;48.854;8.830;2023-05-03T00:13:14;7.97;;;7.17;;
2029;SDS011;1020;48.854;8.830;2023-05-03T00:15:40;7.50;;;6.80;;
2029;SDS011;1020;48.854;8.830;2023-05-03T00:18:07;8.20;;;7.10;;
2029;SDS011;1020;48.854;8.830;2023-05-03T00:20:34;6.43;;;5.20;;
2029;SDS011;1020;48.854;8.830;2023-05-03T00:23:02;6.53;;;5.77;;
2029;SDS011;1020;48.854;8.830;2023-05-03T00:25:29;7.40;;;6.00;;
2029;SDS011;1020;48.854;8.830;2023-05-03T00:27:56;5.60;;;5.10;;
2029;SDS011;1020;48.854;8.830;2023-05-03T00:30:23;7.37;;;6.67;;
2029;SDS011;1020;48.854;8.830;2023-05-03T00:32:50;6.83;;;6.13;;
2029;SDS011;1020;48.854;8.830;2023-05-03T00:35:17;6.40;;;5.60;;
2029;SDS011;1020;48.854;8.830;2023-05-03T00:37:45;7.70;;;6.43;;
2029;SDS011;1020;48.854;8.830;2023-05-03T00:40:13;6.57;;;5.97;;
2029;SDS011;1020;48.854;8.830;2023-05-03T00:42:42;6.30;;;5.80;;
2029;SDS011;1020;48.854;8.830;2023-05-03T00:45:10;6.43;;;5.60;;
2029;SDS011;1020;48.854;8.830;2023-05-03T00:47:37;7.20;;;6.10;;
2029;SDS011;1020;48.854;8.830;2023-05-03T00:50:04;6.73;;;6.10;;
2029;SDS011;1020;48.854;8.830;2023-05-03T00:52:33;6.37;;;5.80;;
2029;SDS011;1020;48.854;8.830;2023-05-03T00:55:00;6.40;;;5.80;;
2029;SDS011;1020;48.854;8.830;2023-05-03T00:57:29;8.17;;;6.80;;
2029;SDS011;1020;48.854;8.830;2023-05-03T00:59:56;8.00;;;6.30;;
2029;SDS011;1020;48.854;8.830;2023-05-03T01:02:23;6.87;;;6.27;;
2029;SDS011;1020;48.854;8.830;2023-05-03T01:04:50;10.70;;;7.27;;
2029;SDS011;1020;48.854;8.830;2023-05-03T01:07:19;6.67;;;6.03;;
2029;SDS011;1020;48.854;8.830;2023-05-03T01:09:55;6.40;;;5.80;;
2029;SDS011;1020;48.854;8.830;2023-05-03T01:12:33;7.80;;;7.03;;
2029;SDS011;1020;48.854;8.830;2023-05-03T01:15:11;6.43;;;5.60;;
2029;SDS011;1020;48.854;8.830;2023-05-03T01:17:44;6.03;;;5.53;;
2029;SDS011;1020;48.854;8.830;2023-05-03T01:20:16;8.30;;;6.63;;
2029;SDS011;1020;48.854;8.830;2023-05-03T01:22:49;8.20;;;7.10;;
2029;SDS011;1020;48.854;8.830;2023-05-03T01:25:26;7.00;;;6.00;;
2029;SDS011;1020;48.854;8.830;2023-05-03T01:27:53;8.67;;;6.50;;
2029;SDS011;1020;48.854;8.830;2023-05-03T01:30:20;7.40;;;6.70;;
2029;SDS011;1020;48.854;8.830;2023-05-03T01:32:55;7.20;;;6.30;;
2029;SDS011;1020;48.854;8.830;2023-05-03T01:35:28;8.00;;;6.87;;
2029;SDS011;1020;48.854;8.830;2023-05-03T01:38:00;6.60;;;6.00;;
2029;SDS011;1020;48.854;8.830;2023-05-03T01:40:29;7.07;;;6.40;;
2029;SDS011;1020;48.854;8.830;2023-05-03T01:42:59;6.60;;;6.00;;
2029;SDS011;1020;48.854;8.830;2023-05-03T01:45:28;6.97;;;5.63;;
2029;SDS011;1020;48.854;8.830;2023-05-03T01:47:55;6.10;;;4.87;;
2029;SDS011;1020;48.854;8.830;2023-05-03T01:50:22;7.07;;;6.37;;
2029;SDS011;1020;48.854;8.830;2023-05-03T01:52:49;6.73;;;6.07;;
2029;SDS011;1020;48.854;8.830;2023-05-03T01:55:16;6.43;;;5.83;;
2029;SDS011;1020;48.854;8.830;2023-05-03T01:57:44;8.07;;;6.43;;
2029;SDS011;1020;48.854;8.830;2023-05-03T02:00:11;7.33;;;6.30;;
2029;SDS011;1020;48.854;8.830;2023-05-03T02:02:40;7.43;;;6.50;;
2029;SDS011;1020;48.854;8.830;2023-05-03T02:05:07;7.00;;;6.00;;
2029;SDS011;1020;48.854;8.830;2023-05-03T02:07:35;7.70;;;6.70;;
2029;SDS011;1020;48.854;8.830;2023-05-03T02:10:02;7.27;;;6.50;;
2029;SDS011;1020;48.854;8.830;2023-05-03T02:12:29;8.03;;;6.77;;
2029;SDS011;1020;48.854;8.830;2023-05-03T02:14:57;7.50;;;6.70;;
2029;SDS011;1020;48.854;8.830;2023-05-03T02:17:24;8.43;;;5.67;;
2029;SDS011;1020;48.854;8.830;2023-05-03T02:19:51;7.10;;;5.70;;
2029;SDS011;1020;48.854;8.830;2023-05-03T02:22:18;6.20;;;5.60;;
2029;SDS011;1020;48.854;8.830;2023-05-03T02:24:45;6.07;;;5.57;;
2029;SDS011;1020;48.854;8.830;2023-05-03T02:27:12;6.80;;;6.10;;
2029;SDS011;1020;48.854;8.830;2023-05-03T02:29:39;7.13;;;6.40;;
2029;SDS011;1020;48.854;8.830;2023-05-03T02:32:07;7.20;;;6.50;;
2029;SDS011;1020;48.854;8.830;2023-05-03T02:34:34;7.90;;;6.97;;
2029;SDS011;1020;48.854;8.830;2023-05-03T02:37:01;7.13;;;6.30;;
2029;SDS011;1020;48.854;8.830;2023-05-03T02:39:28;7.40;;;6.70;;
2029;SDS011;1020;48.854;8.830;2023-05-03T02:41:55;7.23;;;6.53;;
2029;SDS011;1020;48.854;8.830;2023-05-03T02:44:22;8.53;;;6.10;;
2029;SDS011;1020;48.854;8.830;2023-05-03T02:46:48;7.07;;;6.40;;
2029;SDS011;1020;48.854;8.830;2023-05-03T02:49:16;7.70;;;6.07;;
2029;SDS011;1020;48.854;8.830;2023-05-03T02:51:43;7.07;;;6.37;;
2029;SDS011;1020;48.854;8.830;2023-05-03T02:54:10;7.60;;;6.90;;
2029;SDS011;1020;48.854;8.830;2023-05-03T02:56:37;7.53;;;6.50;;
2029;SDS011;1020;48.854;8.830;2023-05-03T02:59:03;8.10;;;6.83;;
2029;SDS011;1020;48.854;8.830;2023-05-03T03:01:31;8.10;;;6.60;;
2029;SDS011;1020;48.854;8.830;2023-05-03T03:03:58;12.90;;;7.57;;
2029;SDS011;1020;48.854;8.830;2023-05-03T03:06:27;7.93;;;7.13;;
2029;SDS011;1020;48.854;8.830;2023-05-03T03:08:53;8.00;;;7.20;;
2029;SDS011;1020;48.854;8.830;2023-05-03T03:11:20;10.10;;;7.80;;
2029;SDS011;1020;48.854;8.830;2023-05-03T03:13:48;11.13;;;8.30;;
2029;SDS011;1020;48.854;8.830;2023-05-03T03:16:14;9.63;;;7.57;;
2029;SDS011;1020;48.854;8.830;2023-05-03T03:18:41;7.40;;;6.60;;
2029;SDS011;1020;48.854;8.830;2023-05-03T03:21:08;9.43;;;7.40;;
2029;SDS011;1020;48.854;8.830;2023-05-03T03:23:36;8.43;;;7.63;;
2029;SDS011;1020;48.854;8.830;2023-05-03T03:26:02;11.60;;;8.60;;
2029;SDS011;1020;48.854;8.830;2023-05-03T03:28:30;12.57;;;8.40;;
2029;SDS011;1020;48.854;8.830;2023-05-03T03:30:57;10.40;;;8.10;;
2029;SDS011;1020;48.854;8.830;2023-05-03T03:33:23;9.73;;;7.33;;
2029;SDS011;1020;48.854;8.830;2023-05-03T03:35:50;10.67;;;8.50;;
2029;SDS011;1020;48.854;8.830;2023-05-03T03:38:17;10.70;;;9.60;;
2029;SDS011;1020;48.854;8.830;2023-05-03T03:40:45;12.30;;;10.03;;
2029;SDS011;1020;48.854;8.830;2023-05-03T03:43:12;13.20;;;9.73;;
2029;SDS011;1020;48.854;8.830;2023-05-03T03:45:38;8.83;;;7.53;;
2029;SDS011;1020;48.854;8.830;2023-05-03T03:48:05;7.90;;;7.10;;
2029;SDS011;1020;48.854;8.830;2023-05-03T03:50:32;11.57;;;9.67;;
2029;SDS011;1020;48.854;8.830;2023-05-03T03:52:59;12.80;;;10.80;;
2029;SDS011;1020;48.854;8.830;2023-05-03T03:55:26;13.37;;;10.77;;
2029;SDS011;1020;48.854;8.830;2023-05-03T03:57:54;11.97;;;10.13;;
2029;SDS011;1020;48.854;8.830;2023-05-03T04:00:21;12.23;;;10.37;;
2029;SDS011;1020;48.854;8.830;2023-05-03T04:02:48;12.23;;;10.30;;
2029;SDS011;1020;48.854;8.830;2023-05-03T04:05:14;14.00;;;11.60;;
2029;SDS011;1020;48.854;8.830;2023-05-03T04:07:41;15.53;;;11.30;;
2029;SDS011;1020;48.854;8.830;2023-05-03T04:10:08;11.40;;;9.37;;
2029;SDS011;1020;48.854;8.830;2023-05-03T04:12:35;11.33;;;8.60;;
2029;SDS011;1020;48.854;8.830;2023-05-03T04:15:03;9.57;;;8.63;;
2029;SDS011;1020;48.854;8.830;2023-05-03T04:17:31;7.10;;;6.40;;
2029;SDS011;1020;48.854;8.830;2023-05-03T04:19:59;8.30;;;7.40;;
2029;SDS011;1020;48.854;8.830;2023-05-03T04:22:27;8.90;;;8.00;;
2029;SDS011;1020;48.854;8.830;2023-05-03T04:24:55;8.20;;;7.10;;
2029;SDS011;1020;48.854;8.830;2023-05-03T04:27:21;8.97;;;7.50;;
2029;SDS011;1020;48.854;8.830;2023-05-03T04:29:50;10.73;;;6.90;;
2029;SDS011;1020;48.854;8.830;2023-05-03T04:32:18;8.17;;;7.37;;
2029;SDS011;1020;48.854;8.830;2023-05-03T04:34:47;10.90;;;8.90;;
2029;SDS011;1020;48.854;8.830;2023-05-03T04:37:15;9.70;;;8.00;;
2029;SDS011;1020;48.854;8.830;2023-05-03T04:39:42;9.50;;;7.80;;
2029;SDS011;1020;48.854;8.830;2023-05-03T04:42:09;7.97;;;7.27;;
2029;SDS011;1020;48.854;8.830;2023-05-03T04:44:37;9.17;;;7.80;;
2029;SDS011;1020;48.854;8.830;2023-05-03T04:47:04;7.50;;;6.80;;
2029;SDS011;1020;48.854;8.830;2023-05-03T04:49:32;8.80;;;6.27;;
2029;SDS011;1020;48.854;8.830;2023-05-03T04:51:59;6.83;;;6.10;;
2029;SDS011;1020;48.854;8.830;2023-05-03T04:54:26;7.67;;;6.87;;
2029;SDS011;1020;48.854;8.830;2023-05-03T04:56:53;6.17;;;5.57;;
2029;SDS011;1020;48.854;8.830;2023-05-03T04:59:20;7.07;;;5.80;;
2029;SDS011;1020;48.854;8.830;2023-05-03T05:01:47;6.87;;;6.27;;
2029;SDS011;1020;48.854;8.830;2023-05-03T05:04:14;7.93;;;6.57;;
2029;SDS011;1020;48.854;8.830;2023-05-03T05:06:42;6.77;;;5.43;;
2029;SDS011;1020;48.854;8.830;2023-05-03T05:09:18;6.40;;;5.80;;
2029;SDS011;1020;48.854;8.830;2023-05-03T05:11:46;7.23;;;6.17;;
2029;SDS011;1020;48.854;8.830;2023-05-03T05:14:13;10.17;;;8.57;;
2029;SDS011;1020;48.854;8.830;2023-05-03T05:16:40;8.20;;;7.03;;
2029;SDS011;1020;48.854;8.830;2023-05-03T05:19:07;10.10;;;9.20;;
2029;SDS011;1020;48.854;8.830;2023-05-03T05:21:34;9.77;;;8.77;;
2029;SDS011;1020;48.854;8.830;2023-05-03T05:24:02;10.73;;;8.53;;
2029;SDS011;1020;48.854;8.830;2023-05-03T05:26:29;8.63;;;7.80;;
2029;SDS011;1020;48.854;8.830;2023-05-03T05:28:56;11.00;;;8.20;;
2029;SDS011;1020;48.854;8.830;2023-05-03T05:31:22;14.13;;;10.33;;
2029;SDS011;1020;48.854;8.830;2023-05-03T05:33:49;9.30;;;8.40;;
2029;SDS011;1020;48.854;8.830;2023-05-03T05:36:16;10.83;;;9.73;;
2029;SDS011;1020;48.854;8.830;2023-05-03T05:38:42;10.37;;;9.37;;
2029;SDS011;1020;48.854;8.830;2023-05-03T05:41:11;11.43;;;8.97;;
2029;SDS011;1020;48.854;8.830;2023-05-03T05:43:37;10.30;;;9.20;;
2029;SDS011;1020;48.854;8.830;2023-05-03T05:46:04;11.40;;;9.43;;
2029;SDS011;1020;48.854;8.830;2023-05-03T05:48:32;11.87;;;10.20;;
2029;SDS011;1020;48.854;8.830;2023-05-03T05:50:59;11.47;;;9.70;;
2029;SDS011;1020;48.854;8.830;2023-05-03T05:53:25;10.77;;;9.47;;
2029;SDS011;1020;48.854;8.830;2023-05-03T05:55:52;10.10;;;8.63;;
2029;SDS011;1020;48.854;8.830;2023-05-03T05:58:20;11.10;;;9.27;;
2029;SDS011;1020;48.854;8.830;2023-05-03T06:00:47;11.60;;;8.57;;
2029;SDS011;1020;48.854;8.830;2023-05-03T06:03:14;10.83;;;9.30;;
2029;SDS011;1020;48.854;8.830;2023-05-03T06:05:41;10.53;;;9.43;;
2029;SDS011;1020;48.854;8.830;2023-05-03T06:08:09;9.97;;;8.90;;
2029;SDS011;1020;48.854;8.830;2023-05-03T06:10:35;11.27;;;10.10;;
2029;SDS011;1020;48.854;8.830;2023-05-03T06:13:02;12.17;;;9.70;;
2029;SDS011;1020;48.854;8.830;2023-05-03T06:15:30;10.50;;;8.83;;
2029;SDS011;1020;48.854;8.830;2023-05-03T06:17:57;12.67;;;9.30;;
2029;SDS011;1020;48.854;8.830;2023-05-03T06:20:24;9.93;;;8.90;;
2029;SDS011;1020;48.854;8.830;2023-05-03T06:22:51;10.63;;;9.07;;
2029;SDS011;1020;48.854;8.830;2023-05-03T06:25:17;11.40;;;9.90;;
2029;SDS011;1020;48.854;8.830;2023-05-03T06:27:44;9.80;;;8.77;;
2029;SDS011;1020;48.854;8.830;2023-05-03T06:30:11;9.60;;;8.67;;
2029;SDS011;1020;48.854;8.830;2023-05-03T06:32:41;12.63;;;8.73;;
2029;SDS011;1020;48.854;8.830;2023-05-03T06:35:08;9.00;;;8.10;;
2029;SDS011;1020;48.854;8.830;2023-05-03T06:37:34;10.80;;;9.70;;
2029;SDS011;1020;48.854;8.830;2023-05-03T06:40:01;10.10;;;8.70;;
2029;SDS011;1020;48.854;8.830;2023-05-03T06:42:29;9.87;;;8.87;;
2029;SDS011;1020;48.854;8.830;2023-05-03T06:44:56;8.50;;;7.80;;
2029;SDS011;1020;48.854;8.830;2023-05-03T06:47:22;9.87;;;8.87;;
2029;SDS011;1020;48.854;8.830;2023-05-03T06:49:51;9.70;;;8.70;;
2029;SDS011;1020;48.854;8.830;2023-05-03T06:52:17;12.53;;;9.60;;
2029;SDS011;1020;48.854;8.830;2023-05-03T06:54:44;11.57;;;8.70;;
2029;SDS011;1020;48.854;8.830;2023-05-03T06:57:11;11.33;;;10.13;;
2029;SDS011;1020;48.854;8.830;2023-05-03T06:59:37;12.60;;;8.47;;
2029;SDS011;1020;48.854;8.830;2023-05-03T07:02:04;10.70;;;8.90;;
2029;SDS011;1020;48.854;8.830;2023-05-03T07:04:31;9.70;;;8.80;;
2029;SDS011;1020;48.854;8.830;2023-05-03T07:06:59;10.10;;;9.20;;
2029;SDS011;1020;48.854;8.830;2023-05-03T07:09:26;9.50;;;8.40;;
2029;SDS011;1020;48.854;8.830;2023-05-03T07:11:53;11.67;;;8.80;;
2029;SDS011;1020;48.854;8.830;2023-05-03T07:14:19;8.90;;;8.10;;
2029;SDS011;1020;48.854;8.830;2023-05-03T07:16:46;10.50;;;9.50;;
2029;SDS011;1020;48.854;8.830;2023-05-03T07:19:13;10.87;;;9.40;;
2029;SDS011;1020;48.854;8.830;2023-05-03T07:21:40;10.50;;;9.40;;
2029;SDS011;1020;48.854;8.830;2023-05-03T07:24:08;10.57;;;9.50;;
2029;SDS011;1020;48.854;8.830;2023-05-03T07:26:36;11.20;;;9.97;;
2029;SDS011;1020;48.854;8.830;2023-05-03T07:29:03;11.63;;;10.63;;
2029;SDS011;1020;48.854;8.830;2023-05-03T07:31:30;11.57;;;10.27;;
2029;SDS011;1020;48.854;8.830;2023-05-03T07:33:57;11.63;;;9.97;;
2029;SDS011;1020;48.854;8.830;2023-05-03T07:36:24;11.93;;;9.80;;
2029;SDS011;1020;48.854;8.830;2023-05-03T07:38:51;13.20;;;11.40;;
2029;SDS011;1020;48.854;8.830;2023-05-03T07:41:19;12.60;;;11.07;;
2029;SDS011;1020;48.854;8.830;2023-05-03T07:43:46;10.73;;;9.73;;
2029;SDS011;1020;48.854;8.830;2023-05-03T07:46:13;13.27;;;10.67;;
2029;SDS011;1020;48.854;8.830;2023-05-03T07:48:40;10.90;;;9.80;;
2029;SDS011;1020;48.854;8.830;2023-05-03T07:51:07;11.27;;;9.90;;
2029;SDS011;1020;48.854;8.830;2023-05-03T07:53:33;11.50;;;10.40;;
2029;SDS011;1020;48.854;8.830;2023-05-03T07:56:00;10.93;;;9.93;;
2029;SDS011;1020;48.854;8.830;2023-05-03T07:58:28;10.93;;;9.77;;
2029;SDS011;1020;48.854;8.830;2023-05-03T08:00:56;10.70;;;9.70;;
2029;SDS011;1020;48.854;8.830;2023-05-03T08:03:22;11.53;;;10.43;;
2029;SDS011;1020;48.854;8.830;2023-05-03T08:05:50;11.93;;;10.63;;
2029;SDS011;1020;48.854;8.830;2023-05-03T08:08:17;12.13;;;10.97;;
2029;SDS011;1020;48.854;8.830;2023-05-03T08:10:44;11.90;;;10.80;;
2029;SDS011;1020;48.854;8.830;2023-05-03T08:13:10;13.27;;;11.87;;
2029;SDS011;1020;48.854;8.830;2023-05-03T08:15:39;12.67;;;11.57;;
2029;SDS011;1020;48.854;8.830;2023-05-03T08:18:05;13.10;;;11.87;;
2029;SDS011;1020;48.854;8.830;2023-05-03T08:20:32;12.10;;;10.30;;
2029;SDS011;1020;48.854;8.830;2023-05-03T08:23:00;10.67;;;9.67;;
2029;SDS011;1020;48.854;8.830;2023-05-03T08:25:27;10.20;;;9.13;;
2029;SDS011;1020;48.854;8.830;2023-05-03T08:27:54;11.33;;;10.33;;
2029;SDS011;1020;48.854;8.830;2023-05-03T08:30:21;11.00;;;10.00;;
2029;SDS011;1020;48.854;8.830;2023-05-03T08:32:49;11.10;;;10.10;;
2029;SDS011;1020;48.854;8.830;2023-05-03T08:35:16;10.50;;;9.60;;
2029;SDS011;1020;48.854;8.830;2023-05-03T08:37:43;11.10;;;10.10;;
2029;SDS011;1020;48.854;8.830;2023-05-03T08:40:10;10.30;;;9.40;;
2029;SDS011;1020;48.854;8.830;2023-05-03T08:42:39;11.67;;;10.47;;
2029;SDS011;1020;48.854;8.830;2023-05-03T08:45:11;12.13;;;10.20;;
2029;SDS011;1020;48.854;8.830;2023-05-03T08:47:40;11.00;;;9.90;;
2029;SDS011;1020;48.854;8.830;2023-05-03T08:50:10;11.47;;;10.47;;
2029;SDS011;1020;48.854;8.830;2023-05-03T08:52:38;10.97;;;9.90;;
2029;SDS011;1020;48.854;8.830;2023-05-03T08:55:06;10.47;;;9.47;;
2029;SDS011;1020;48.854;8.830;2023-05-03T08:57:34;11.03;;;9.90;;
2029;SDS011;1020;48.854;8.830;2023-05-03T09:00:01;11.10;;;10.00;;
2029;SDS011;1020;48.854;8.830;2023-05-03T09:02:34;11.17;;;10.30;;
2029;SDS011;1020;48.854;8.830;2023-05-03T09:05:04;10.93;;;10.00;;
2029;SDS011;1020;48.854;8.830;2023-05-03T09:07:33;10.70;;;9.70;;
2029;SDS011;1020;48.854;8.830;2023-05-03T09:10:00;11.00;;;9.90;;
2029;SDS011;1020;48.854;8.830;2023-05-03T09:12:34;10.27;;;9.40;;
2029;SDS011;1020;48.854;8.830;2023-05-03T09:15:05;11.37;;;10.37;;
2029;SDS011;1020;48.854;8.830;2023-05-03T09:17:33;11.70;;;10.70;;
2029;SDS011;1020;48.854;8.830;2023-05-03T09:19:59;11.43;;;10.47;;
2029;SDS011;1020;48.854;8.830;2023-05-03T09:22:27;9.60;;;8.80;;
2029;SDS011;1020;48.854;8.830;2023-05-03T09:24:58;9.27;;;8.47;;
2029;SDS011;1020;48.854;8.830;2023-05-03T09:27:26;9.03;;;8.33;;
2029;SDS011;1020;48.854;8.830;2023-05-03T09:29:53;9.77;;;8.97;;
2029;SDS011;1020;48.854;8.830;2023-05-03T09:32:20;13.43;;;9.40;;
2029;SDS011;1020;48.854;8.830;2023-05-03T09:34:49;10.13;;;9.30;;
2029;SDS011;1020;48.854;8.830;2023-05-03T09:37:16;9.83;;;9.13;;
2029;SDS011;1020;48.854;8.830;2023-05-03T09:39:44;9.70;;;8.90;;
2029;SDS011;1020;48.854;8.830;2023-05-03T09:42:13;8.60;;;8.00;;
2029;SDS011;1020;48.854;8.830;2023-05-03T09:44:42;9.50;;;8.70;;
2029;SDS011;1020;48.854;8.830;2023-05-03T09:47:12;10.53;;;9.50;;
2029;SDS011;1020;48.854;8.830;2023-05-03T09:49:40;9.27;;;8.37;;
2029;SDS011;1020;48.854;8.830;2023-05-03T09:52:07;8.53;;;7.83;;
2029;SDS011;1020;48.854;8.830;2023-05-03T09:54:35;9.27;;;8.47;;
2029;SDS011;1020;48.854;8.830;2023-05-03T09:57:03;8.87;;;8.17;;
2029;SDS011;1020;48.854;8.830;2023-05-03T09:59:32;8.40;;;7.70;;
2029;SDS011;1020;48.854;8.830;2023-05-03T10:02:01;9.67;;;8.97;;
2029;SDS011;1020;48.854;8.830;2023-05-03T10:04:38;9.80;;;9.10;;
2029;SDS011;1020;48.854;8.830;2023-05-03T10:07:08;9.10;;;8.30;;
2029;SDS011;1020;48.854;8.830;2023-05-03T10:09:38;9.00;;;8.20;;
2029;SDS011;1020;48.854;8.830;2023-05-03T10:12:09;9.80;;;9.00;;
2029;SDS011;1020;48.854;8.830;2023-05-03T10:14:40;10.40;;;9.60;;
2029;SDS011;1020;48.854;8.830;2023-05-03T10:17:09;9.77;;;8.93;;
2029;SDS011;1020;48.854;8.830;2023-05-03T10:19:45;9.40;;;8.50;;
2029;SDS011;1020;48.854;8.830;2023-05-03T10:22:14;8.37;;;7.77;;
2029;SDS011;1020;48.854;8.830;2023-05-03T10:27:38;9.73;;;8.93;;
2029;SDS011;1020;48.854;8.830;2023-05-03T10:30:09;10.20;;;9.30;;
2029;SDS011;1020;48.854;8.830;2023-05-03T10:32:53;10.47;;;9.40;;
2029;SDS011;1020;48.854;8.830;2023-05-03T10:35:21;9.43;;;8.50;;
2029;SDS011;1020;48.854;8.830;2023-05-03T10:37:52;9.17;;;8.47;;
2029;SDS011;1020;48.854;8.830;2023-05-03T10:40:21;7.90;;;7.30;;
2029;SDS011;1020;48.854;8.830;2023-05-03T10:42:49;10.10;;;9.23;;
2029;SDS011;1020;48.854;8.830;2023-05-03T10:45:22;9.90;;;9.00;;
2029;SDS011;1020;48.854;8.830;2023-05-03T10:50:47;7.67;;;6.97;;
2029;SDS011;1020;48.854;8.830;2023-05-03T10:56:08;10.87;;;9.73;;
2029;SDS011;1020;48.854;8.830;2023-05-03T10:58:36;8.70;;;7.90;;
2029;SDS011;1020;48.854;8.830;2023-05-03T11:01:09;8.13;;;7.40;;
2029;SDS011;1020;48.854;8.830;2023-05-03T11:03:42;8.87;;;8.17;;
2029;SDS011;1020;48.854;8.830;2023-05-03T11:06:29;8.60;;;7.90;;
2029;SDS011;1020;48.854;8.830;2023-05-03T11:08:57;7.07;;;6.47;;
2029;SDS011;1020;48.854;8.830;2023-05-03T11:11:25;7.30;;;6.70;;
2029;SDS011;1020;48.854;8.830;2023-05-03T11:13:52;9.20;;;8.50;;
2029;SDS011;1020;48.854;8.830;2023-05-03T11:16:20;8.00;;;7.20;;
2029;SDS011;1020;48.854;8.830;2023-05-03T11:18:47;7.27;;;6.70;;
2029;SDS011;1020;48.854;8.830;2023-05-03T11:21:15;8.40;;;7.70;;
2029;SDS011;1020;48.854;8.830;2023-05-03T11:23:43;7.27;;;6.77;;
2029;SDS011;1020;48.854;8.830;2023-05-03T11:26:11;6.73;;;6.20;;
2029;SDS011;1020;48.854;8.830;2023-05-03T11:28:38;6.97;;;6.37;;
2029;SDS011;1020;48.854;8.830;2023-05-03T11:31:06;7.63;;;6.93;;
2029;SDS011;1020;48.854;8.830;2023-05-03T11:33:36;7.03;;;6.53;;
2029;SDS011;1020;48.854;8.830;2023-05-03T11:36:04;7.10;;;6.50;;
2029;SDS011;1020;48.854;8.830;2023-05-03T11:38:32;8.90;;;8.20;;
2029;SDS011;1020;48.854;8.830;2023-05-03T11:40:59;7.10;;;6.60;;
2029;SDS011;1020;48.854;8.830;2023-05-03T11:43:39;6.90;;;6.33;;
2029;SDS011;1020;48.854;8.830;2023-05-03T11:46:06;6.93;;;6.43;;
2029;SDS011;1020;48.854;8.830;2023-05-03T11:48:35;6.60;;;6.17;;
2029;SDS011;1020;48.854;8.830;2023-05-03T11:51:05;7.37;;;6.73;;
2029;SDS011;1020;48.854;8.830;2023-05-03T11:53:35;7.20;;;6.47;;
2029;SDS011;1020;48.854;8.830;2023-05-03T11:56:05;7.10;;;6.60;;
2029;SDS011;1020;48.854;8.830;2023-05-03T11:58:32;6.97;;;6.40;;
2029;SDS011;1020;48.854;8.830;2023-05-03T12:01:00;8.10;;;7.40;;
2029;SDS011;1020;48.854;8.830;2023-05-03T12:03:28;7.00;;;6.40;;
2029;SDS011;1020;48.854;8.830;2023-05-03T12:05:58;6.90;;;6.40;;
2029;SDS011;1020;48.854;8.830;2023-05-03T12:08:28;6.53;;;6.03;;
2029;SDS011;1020;48.854;8.830;2023-05-03T12:10:57;5.73;;;5.33;;
2029;SDS011;1020;48.854;8.830;2023-05-03T12:13:25;6.93;;;6.33;;
2029;SDS011;1020;48.854;8.830;2023-05-03T12:15:55;5.80;;;5.30;;
2029;SDS011;1020;48.854;8.830;2023-05-03T12:18:22;5.10;;;4.70;;
2029;SDS011;1020;48.854;8.830;2023-05-03T12:20:54;6.37;;;5.97;;
2029;SDS011;1020;48.854;8.830;2023-05-03T12:23:23;6.60;;;6.10;;
2029;SDS011;1020;48.854;8.830;2023-05-03T12:25:50;5.97;;;5.47;;
2029;SDS011;1020;48.854;8.830;2023-05-03T12:28:17;6.10;;;5.57;;
2029;SDS011;1020;48.854;8.830;2023-05-03T12:30:45;6.80;;;6.20;;
2029;SDS011;1020;48.854;8.830;2023-05-03T12:33:11;7.23;;;6.37;;
2029;SDS011;1020;48.854;8.830;2023-05-03T12:35:39;6.27;;;5.87;;
2029;SDS011;1020;48.854;8.830;2023-05-03T12:38:06;5.60;;;5.13;;
2029;SDS011;1020;48.854;8.830;2023-05-03T12:40:34;5.73;;;4.70;;
2029;SDS011;1020;48.854;8.830;2023-05-03T12:43:01;5.30;;;5.00;;
2029;SDS011;1020;48.854;8.830;2023-05-03T12:45:28;5.33;;;4.93;;
2029;SDS011;1020;48.854;8.830;2023-05-03T12:47:56;6.83;;;6.13;;
2029;SDS011;1020;48.854;8.830;2023-05-03T12:50:22;5.40;;;4.90;;
2029;SDS011;1020;48.854;8.830;2023-05-03T12:52:49;6.47;;;5.87;;
2029;SDS011;1020;48.854;8.830;2023-05-03T12:55:16;5.70;;;5.30;;
2029;SDS011;1020;48.854;8.830;2023-05-03T12:57:45;5.90;;;5.40;;
2029;SDS011;1020;48.854;8.830;2023-05-03T13:00:12;4.90;;;4.60;;
2029;SDS011;1020;48.854;8.830;2023-05-03T13:02:41;5.43;;;4.93;;
2029;SDS011;1020;48.854;8.830;2023-05-03T13:05:08;4.40;;;4.10;;
2029;SDS011;1020;48.854;8.830;2023-05-03T13:07:37;4.10;;;3.80;;
2029;SDS011;1020;48.854;8.830;2023-05-03T13:10:05;9.83;;;5.40;;
2029;SDS011;1020;48.854;8.830;2023-05-03T13:12:33;6.13;;;5.63;;
2029;SDS011;1020;48.854;8.830;2023-05-03T13:15:01;4.83;;;4.33;;
2029;SDS011;1020;48.854;8.830;2023-05-03T13:17:29;5.27;;;4.87;;
2029;SDS011;1020;48.854;8.830;2023-05-03T13:19:56;4.90;;;4.50;;
2029;SDS011;1020;48.854;8.830;2023-05-03T13:22:23;4.50;;;4.10;;
2029;SDS011;1020;48.854;8.830;2023-05-03T13:24:50;5.47;;;5.07;;
2029;SDS011;1020;48.854;8.830;2023-05-03T13:27:16;4.57;;;4.00;;
2029;SDS011;1020;48.854;8.830;2023-05-03T13:29:43;4.70;;;4.37;;
2029;SDS011;1020;48.854;8.830;2023-05-03T13:32:11;5.27;;;4.80;;
2029;SDS011;1020;48.854;8.830;2023-05-03T13:34:38;4.57;;;4.17;;
2029;SDS011;1020;48.854;8.830;2023-05-03T13:37:04;4.87;;;4.40;;
2029;SDS011;1020;48.854;8.830;2023-05-03T13:39:31;5.50;;;4.50;;
2029;SDS011;1020;48.854;8.830;2023-05-03T13:41:58;5.20;;;4.70;;
2029;SDS011;1020;48.854;8.830;2023-05-03T13:44:25;4.57;;;4.17;;
2029;SDS011;1020;48.854;8.830;2023-05-03T13:46:52;4.70;;;4.40;;
2029;SDS011;1020;48.854;8.830;2023-05-03T13:49:21;4.63;;;4.33;;
2029;SDS011;1020;48.854;8.830;2023-05-03T13:51:48;4.30;;;3.90;;
2029;SDS011;1020;48.854;8.830;2023-05-03T13:54:15;4.90;;;4.50;;
2029;SDS011;1020;48.854;8.830;2023-05-03T13:56:42;8.57;;;5.83;;
2029;SDS011;1020;48.854;8.830;2023-05-03T13:59:10;5.00;;;4.60;;
2029;SDS011;1020;48.854;8.830;2023-05-03T14:01:38;8.27;;;5.27;;
2029;SDS011;1020;48.854;8.830;2023-05-03T14:04:07;5.50;;;5.10;;
2029;SDS011;1020;48.854;8.830;2023-05-03T14:06:35;4.90;;;4.40;;
2029;SDS011;1020;48.854;8.830;2023-05-03T14:09:02;3.80;;;3.50;;
2029;SDS011;1020;48.854;8.830;2023-05-03T14:11:29;4.73;;;4.33;;
2029;SDS011;1020;48.854;8.830;2023-05-03T14:13:56;4.50;;;4.10;;
2029;SDS011;1020;48.854;8.830;2023-05-03T14:16:23;4.53;;;4.17;;
2029;SDS011;1020;48.854;8.830;2023-05-03T14:18:51;5.10;;;4.10;;
2029;SDS011;1020;48.854;8.830;2023-05-03T14:21:18;6.67;;;6.17;;
2029;SDS011;1020;48.854;8.830;2023-05-03T14:23:46;5.20;;;4.80;;
2029;SDS011;1020;48.854;8.830;2023-05-03T14:26:14;5.80;;;5.27;;
2029;SDS011;1020;48.854;8.830;2023-05-03T14:28:41;5.50;;;5.10;;
2029;SDS011;1020;48.854;8.830;2023-05-03T14:31:08;4.67;;;4.37;;
2029;SDS011;1020;48.854;8.830;2023-05-03T14:33:35;5.63;;;5.13;;
2029;SDS011;1020;48.854;8.830;2023-05-03T14:36:02;6.27;;;5.50;;
2029;SDS011;1020;48.854;8.830;2023-05-03T14:38:32;4.37;;;3.97;;
2029;SDS011;1020;48.854;8.830;2023-05-03T14:41:00;4.60;;;4.20;;
2029;SDS011;1020;48.854;8.830;2023-05-03T14:43:26;4.27;;;3.97;;
2029;SDS011;1020;48.854;8.830;2023-05-03T14:45:54;5.27;;;3.97;;
2029;SDS011;1020;48.854;8.830;2023-05-03T14:48:20;4.57;;;4.17;;
2029;SDS011;1020;48.854;8.830;2023-05-03T14:50:47;8.10;;;4.63;;
2029;SDS011;1020;48.854;8.830;2023-05-03T14:53:14;5.33;;;4.83;;
2029;SDS011;1020;48.854;8.830;2023-05-03T14:55:41;4.90;;;4.40;;
2029;SDS011;1020;48.854;8.830;2023-05-03T14:58:09;4.80;;;4.40;;
2029;SDS011;1020;48.854;8.830;2023-05-03T15:00:37;4.50;;;4.20;;
2029;SDS011;1020;48.854;8.830;2023-05-03T15:03:03;6.70;;;5.47;;
2029;SDS011;1020;48.854;8.830;2023-05-03T15:05:30;4.30;;;4.00;;
2029;SDS011;1020;48.854;8.830;2023-05-03T15:07:57;3.80;;;3.50;;
2029;SDS011;1020;48.854;8.830;2023-05-03T15:10:24;4.17;;;3.87;;
2029;SDS011;1020;48.854;8.830;2023-05-03T15:12:51;4.07;;;3.73;;
2029;SDS011;1020;48.854;8.830;2023-05-03T15:15:20;3.83;;;3.53;;
2029;SDS011;1020;48.854;8.830;2023-05-03T15:17:47;4.60;;;4.30;;
2029;SDS011;1020;48.854;8.830;2023-05-03T15:20:14;5.17;;;4.70;;
2029;SDS011;1020;48.854;8.830;2023-05-03T15:22:41;5.50;;;5.10;;